createdAt,value
2022-12-01T00:00:16.078Z,33
2022-12-01T00:05:16.038Z,35
2022-12-01T00:10:16.116Z,31
2022-12-01T00:15:16.057Z,33
2022-12-01T00:20:16.071Z,32
2022-12-01T00:25:16.102Z,31
2022-12-01T00:30:16.178Z,33
2022-12-01T00:35:16.057Z,25
2022-12-01T00:40:16.208Z,16
2022-12-01T00:45:16.135Z,23
2022-12-01T00:50:16.194Z,36
2022-12-01T00:55:16.169Z,32
2022-12-01T01:00:16.186Z,26
2022-12-01T01:05:16.284Z,28
2022-12-01T01:10:16.437Z,34
2022-12-01T01:15:16.177Z,18
2022-12-01T01:20:16.304Z,23
2022-12-01T01:25:16.309Z,22
2022-12-01T01:30:16.204Z,21
2022-12-01T01:35:16.237Z,41
2022-12-01T01:40:16.249Z,37
2022-12-01T01:45:16.312Z,30
2022-12-01T01:50:16.278Z,29
2022-12-01T01:55:16.205Z,23
2022-12-01T02:00:16.236Z,23
2022-12-01T02:05:16.310Z,20
2022-12-01T02:10:16.297Z,26
2022-12-01T02:15:16.336Z,22
2022-12-01T02:20:16.296Z,17
2022-12-01T02:25:16.311Z,16
2022-12-01T02:30:16.336Z,21
2022-12-01T02:35:16.288Z,18
2022-12-01T02:40:16.269Z,17
2022-12-01T02:45:16.380Z,20
2022-12-01T02:50:16.331Z,22
2022-12-01T02:55:16.318Z,23
2022-12-01T03:00:16.430Z,18
2022-12-01T03:05:16.334Z,22
2022-12-01T03:10:16.436Z,20
2022-12-01T03:15:16.455Z,20
2022-12-01T03:20:16.489Z,26
2022-12-01T03:25:16.398Z,32
2022-12-01T03:30:16.419Z,28
2022-12-01T03:35:16.459Z,28
2022-12-01T03:40:16.518Z,29
2022-12-01T03:45:16.549Z,23
2022-12-01T03:50:16.465Z,21
2022-12-01T03:55:16.611Z,27
2022-12-01T04:00:16.410Z,27
2022-12-01T04:05:19.911Z,26
2022-12-01T04:10:16.603Z,28
2022-12-01T04:15:16.610Z,22
2022-12-01T04:20:17.508Z,19
2022-12-01T04:25:16.544Z,19
2022-12-01T04:30:16.571Z,20
2022-12-01T04:35:16.610Z,20
2022-12-01T04:40:16.523Z,18
2022-12-01T04:45:16.701Z,24
2022-12-01T04:50:16.773Z,20
2022-12-01T04:55:16.545Z,32
2022-12-01T05:00:15.640Z,24
2022-12-01T05:05:15.899Z,25
2022-12-01T05:10:15.662Z,29
2022-12-01T05:15:15.670Z,23
2022-12-01T05:20:15.640Z,28
2022-12-01T05:25:15.696Z,28
2022-12-01T05:30:15.679Z,27
2022-12-01T05:35:15.663Z,32
2022-12-01T05:40:15.728Z,33
2022-12-01T05:45:15.736Z,29
2022-12-01T05:50:15.928Z,31
2022-12-01T05:55:15.607Z,36
2022-12-01T06:00:15.694Z,35
2022-12-01T06:05:15.894Z,27
2022-12-01T06:10:15.864Z,24
2022-12-01T06:15:16.033Z,37
2022-12-01T06:20:15.863Z,35
2022-12-01T06:25:15.989Z,42
2022-12-01T06:30:15.766Z,35
2022-12-01T06:35:15.923Z,45
2022-12-01T06:40:15.834Z,41
2022-12-01T06:45:15.809Z,36
2022-12-01T06:50:15.869Z,36
2022-12-01T06:55:15.874Z,33
2022-12-01T07:00:15.914Z,31
2022-12-01T07:05:15.894Z,30
2022-12-01T07:10:15.823Z,29
2022-12-01T07:15:15.894Z,28
2022-12-01T07:20:16.027Z,30
2022-12-01T07:25:15.939Z,29
2022-12-01T07:30:15.948Z,23
2022-12-01T07:35:15.918Z,17
2022-12-01T07:40:16.008Z,28
2022-12-01T07:45:15.937Z,38
2022-12-01T07:50:15.936Z,37
2022-12-01T07:55:15.961Z,35
2022-12-01T08:00:16.104Z,27
2022-12-01T08:05:16.086Z,32
2022-12-01T08:10:15.975Z,33
2022-12-01T08:15:16.052Z,31
2022-12-01T08:20:20.824Z,29
2022-12-01T08:25:16.106Z,26
2022-12-01T08:30:16.009Z,27
2022-12-01T08:35:16.125Z,22
2022-12-01T08:40:16.104Z,22
2022-12-01T08:45:16.053Z,24
2022-12-01T08:50:16.118Z,21
2022-12-01T08:55:16.105Z,20
2022-12-01T09:00:16.128Z,23
2022-12-01T09:05:16.336Z,21
2022-12-01T09:10:16.476Z,21
2022-12-01T09:15:16.115Z,17
2022-12-01T09:20:16.225Z,22
2022-12-01T09:25:16.182Z,18
2022-12-01T09:30:16.225Z,23
2022-12-01T09:35:20.767Z,28
2022-12-01T09:40:16.386Z,22
2022-12-01T09:45:16.425Z,20
2022-12-01T09:50:16.242Z,17
2022-12-01T09:55:16.169Z,21
2022-12-01T10:00:16.214Z,21
2022-12-01T10:05:16.373Z,23
2022-12-01T10:10:16.315Z,22
2022-12-01T10:15:16.328Z,13
2022-12-01T10:20:16.797Z,22
2022-12-01T10:25:16.243Z,17
2022-12-01T10:30:16.488Z,18
2022-12-01T10:35:16.308Z,15
2022-12-01T10:40:16.317Z,15
2022-12-01T10:45:16.359Z,14
2022-12-01T10:50:16.433Z,13
2022-12-01T10:55:16.549Z,11
2022-12-01T11:00:42.965Z,11
2022-12-01T11:05:16.377Z,9
2022-12-01T11:10:16.429Z,10
2022-12-01T11:15:16.370Z,9
2022-12-01T11:20:16.610Z,10
2022-12-01T11:25:16.446Z,9
2022-12-01T11:30:16.451Z,9
2022-12-01T11:35:16.448Z,13
2022-12-01T11:40:16.574Z,10
2022-12-01T11:45:16.508Z,9
2022-12-01T11:50:16.572Z,13
2022-12-01T11:55:16.419Z,15
2022-12-01T12:00:16.504Z,12
2022-12-01T12:05:16.515Z,12
2022-12-01T12:10:16.547Z,14
2022-12-01T12:15:16.498Z,10
2022-12-01T12:20:17.202Z,11
2022-12-01T12:25:16.645Z,10
2022-12-01T12:30:16.597Z,10
2022-12-01T12:35:16.733Z,12
2022-12-01T12:40:16.691Z,11
2022-12-01T12:45:16.546Z,13
2022-12-01T12:50:16.724Z,13
2022-12-01T12:55:16.569Z,15
2022-12-01T13:00:16.715Z,11
2022-12-01T13:05:16.618Z,14
2022-12-01T13:10:16.599Z,17
2022-12-01T13:15:16.609Z,14
2022-12-01T13:20:16.682Z,14
2022-12-01T13:25:16.777Z,13
2022-12-01T13:30:16.746Z,20
2022-12-01T13:35:16.674Z,15
2022-12-01T13:40:16.758Z,14
2022-12-01T13:45:17.065Z,16
2022-12-01T13:50:16.780Z,17
2022-12-01T13:55:16.679Z,19
2022-12-01T14:00:16.813Z,19
2022-12-01T14:05:16.783Z,19
2022-12-01T14:10:16.702Z,15
2022-12-01T14:15:16.899Z,13
2022-12-01T14:20:16.767Z,15
2022-12-01T14:25:16.783Z,19
2022-12-01T14:30:16.785Z,20
2022-12-01T14:35:16.810Z,21
2022-12-01T14:40:16.894Z,23
2022-12-01T14:45:17.019Z,21
2022-12-01T14:50:16.833Z,21
2022-12-01T14:55:17.179Z,28
2022-12-01T15:00:16.976Z,26
2022-12-01T15:05:16.879Z,21
2022-12-01T15:10:17.018Z,20
2022-12-01T15:15:19.816Z,30
2022-12-01T15:20:17.017Z,28
2022-12-01T15:25:17.268Z,30
2022-12-01T15:30:16.932Z,29
2022-12-01T15:35:17.040Z,31
2022-12-01T15:41:06.218Z,31
2022-12-01T15:41:30.670Z,31
2022-12-01T15:45:16.919Z,29
2022-12-01T15:50:17.020Z,36
2022-12-01T15:55:17.041Z,22
2022-12-01T16:00:17.077Z,30
2022-12-01T16:05:17.060Z,24
2022-12-01T16:10:17.079Z,29
2022-12-01T16:15:17.097Z,26
2022-12-01T16:20:17.077Z,18
2022-12-01T16:25:17.050Z,24
2022-12-01T16:30:17.163Z,27
2022-12-01T16:35:17.070Z,29
2022-12-01T16:40:17.230Z,24
2022-12-01T16:45:17.139Z,16
2022-12-01T16:50:17.140Z,33
2022-12-01T16:55:17.107Z,27
2022-12-01T17:00:17.132Z,26
2022-12-01T17:05:17.097Z,22
2022-12-01T17:10:17.342Z,23
2022-12-01T17:15:17.139Z,22
2022-12-01T17:20:17.193Z,31
2022-12-01T17:25:17.221Z,23
2022-12-01T17:30:17.267Z,26
2022-12-01T17:35:17.243Z,21
2022-12-01T17:40:17.316Z,29
2022-12-01T17:45:17.314Z,21
2022-12-01T17:50:17.257Z,22
2022-12-01T17:55:17.218Z,19
2022-12-01T18:00:17.240Z,25
2022-12-01T18:05:17.439Z,24
2022-12-01T18:10:17.553Z,20
2022-12-01T18:15:17.297Z,20
2022-12-01T18:20:17.392Z,17
2022-12-01T18:25:17.258Z,18
2022-12-01T18:30:17.290Z,19
2022-12-01T18:35:17.591Z,25
2022-12-01T18:40:17.280Z,19
2022-12-01T18:45:21.027Z,21
2022-12-01T18:50:17.357Z,23
2022-12-01T18:55:17.372Z,24
2022-12-01T19:00:17.452Z,21
2022-12-01T19:05:17.379Z,25
2022-12-01T19:10:15.487Z,28
2022-12-01T19:15:15.589Z,30
2022-12-01T19:20:15.380Z,32
2022-12-01T19:25:15.522Z,41
2022-12-01T19:30:15.494Z,30
2022-12-01T19:35:15.584Z,36
2022-12-01T19:40:15.423Z,38
2022-12-01T19:45:15.451Z,32
2022-12-01T19:50:15.573Z,30
2022-12-01T19:55:15.366Z,31
2022-12-01T20:00:15.445Z,24
2022-12-01T20:05:15.517Z,25
2022-12-01T20:10:15.583Z,25
2022-12-01T20:15:15.468Z,33
2022-12-01T20:20:15.665Z,31
2022-12-01T20:25:15.496Z,43
2022-12-01T20:30:15.558Z,37
2022-12-01T20:35:15.507Z,33
2022-12-01T20:40:15.747Z,35
2022-12-01T20:45:15.619Z,39
2022-12-01T20:50:15.616Z,36
2022-12-01T20:55:15.623Z,34
2022-12-01T21:00:15.775Z,29
2022-12-01T21:05:15.723Z,27
2022-12-01T21:10:19.820Z,24
2022-12-01T21:15:15.720Z,22
2022-12-01T21:20:15.699Z,23
2022-12-01T21:25:15.696Z,22
2022-12-01T21:30:15.754Z,29
2022-12-01T21:35:15.712Z,18
2022-12-01T21:40:15.761Z,22
2022-12-01T21:45:15.704Z,25
2022-12-01T21:50:16.057Z,25
2022-12-01T21:55:15.714Z,23
2022-12-01T22:00:15.741Z,28
2022-12-01T22:05:15.962Z,22
2022-12-01T22:10:15.739Z,20
2022-12-01T22:15:15.943Z,22
2022-12-01T22:20:15.868Z,27
2022-12-01T22:25:15.917Z,26
2022-12-01T22:30:15.875Z,24
2022-12-01T22:35:15.802Z,17
2022-12-01T22:40:15.845Z,22
2022-12-01T22:45:16.078Z,23
2022-12-01T22:50:15.819Z,22
2022-12-01T22:55:16.509Z,26
2022-12-01T23:00:15.898Z,26
2022-12-01T23:05:15.961Z,25
2022-12-01T23:10:15.900Z,30
2022-12-01T23:15:15.873Z,24
2022-12-01T23:20:15.899Z,24
2022-12-01T23:25:15.957Z,21
2022-12-01T23:30:15.984Z,23
2022-12-01T23:35:15.993Z,21
2022-12-01T23:40:16.096Z,24
2022-12-01T23:45:16.222Z,19
2022-12-01T23:50:16.073Z,16
2022-12-01T23:55:15.959Z,16
